Terminal Aerodrome Forecast
Issued by NWS

Home | Current Version | Previous Version | Text Only | Print | Product List | Glossary On
Versions: 1 2 3 4 5 6 7 8 9 10 11
572
FTAK31 PAJN 252320
TAFAGY
TAF
PAGY 252320Z 2600/2624 22010KT P6SM FEW030 SCT070
     FM260400 VRB04KT P6SM SCT200
      AMD LTD TO CLD VIS AND WIND=

USA.gov is the U.S. government's official web portal to all federal, state and local government web resources and services.